Results by/Résultats par Info:[email protected] Phone: (613)723-0994

                                     K-TOWN TRIATHLON
                    
                                   Sunday August 5, 2007

                           Confederation Park, Kingston, Ontario
                    
                                Overall Results - Duathlon

  -----FINAL----- ----------------------- ------------ -------------------- ----            4km                         30 km                   7.2 km         
                                                       Category                     ------RUN + T1--------    ----------BIKE--------    -------RUN + T2-------- ------
    Pos     Time  Name                    City         Plc/Total Category     #      Cat  Ovr  Time     km     Cat Ovr Time  km/hr      Cat  Ovr  Time     km   Penalty
  ------  ------- ----------------------- ------------ -------------------- ----    ----------------------    ----------------------    ----------------------- ------
    1     1:27:29 Kevin SMITH             Oakville       1/3   Elite Men     628    1      2   13:21  3:21    1      3   48:40  37.0     1      2   25:29  3:33         
    2     1:30:39 Kevin DUNBAR            Kingston       1/7   M30 - 34      659    1      1   13:13  3:19    1     10   52:24  34.4     1      1   25:04  3:29         
    3     1:31:56 Andy LEGER              Kingston       1/4   M40 - 44      631    1      7   15:30  3:53    1      1   46:14  38.9     1      9   30:12  4:12         
    4     1:33:58 Jim BORRENS             Ottawa         2/3   Elite Men     673    2      3   14:42  3:41    2      6   50:09  35.9     2      3   29:08  4:03         
    5     1:35:47 Bob TYSEN               Lake Placid    1/5   M50 - 54      656    1     16   17:02  4:16    1      2   47:41  37.7     1     12   31:05  4:19         
    6     1:37:50 Michael MACDONALD       Kingston       1/2   M20 - 24      683    1      4   14:45  3:42    1     12   52:59  34.0     2      7   30:06  4:11         
    7     1:38:20 Jeff MCCUE              Kingston       2/2   M20 - 24      679    2      5   15:11  3:48    2     15   53:39  33.6     1      5   29:30  4:06         
    8     1:38:49 Michael MAGILL          Kingston       1/17  M45 - 49      618    1     11   16:21  4:06    3      7   51:53  34.7     1     10   30:35  4:15         
    9     1:39:05 Rob DROUGHAN            Toronto        2/17  M45 - 49      610    3     13   16:44  4:11    1      4   48:45  36.9     5     18   33:37  4:41         
   10     1:40:25 Amy SCHNEEERG           Kingston       1/4   W25 - 29      660    1      6   15:27  3:52    1     19   55:39  32.3     1      4   29:20  4:05         
   11     1:41:10 Jeffrey MINICOLA        Peterborough   3/17  M45 - 49      647    5     17   17:19  4:20    2      5   50:04  36.0     6     19   33:47  4:42         
   12     1:41:42 Timon GARREAU           Ashton         2/7   M30 - 34      675    2      9   16:08  4:02    3     14   53:37  33.6     2     14   31:58  4:27         
   13     1:41:55 Allan ANDERSON          Ottawa         4/17  M45 - 49      625    6     18   17:25  4:22    4      9   52:19  34.4     4     16   32:11  4:29         
   14     1:42:24 Emily KLASSEN           Kingston       1/2   Junior Women  639    1      8   16:00  4:00    1     18   55:30  32.4     1     11   30:56  4:18         
   15     1:44:59 Bill TRENHAILE          Newburgh       5/17  M45 - 49      612    2     12   16:30  4:08    6     28   57:18  31.4     2     13   31:12  4:20         
   16     1:46:21 Stephen CARTER          Kingston       3/7   M30 - 34      617    3     20   17:52  4:28    2     11   52:50  34.1     4     25   35:40  4:58         
   17     1:47:00 Kevin GALLAGHER         Toronto        2/4   M40 - 44      633    2     21   17:54  4:29    2     13   53:30  33.6     2     24   35:38  4:57         
   18     1:47:06 Dan WILLEMSE            Bath           1/6   M35 - 39      669    3     24   18:21  4:36    1     20   56:08  32.1     3     17   32:39  4:32         
   19     1:47:09 Neil HOPKINS            Kingston       2/6   M35 - 39      627    2     15   16:59  4:15    3     42 1:00:13  29.9     1      6   29:57  4:10         
   20     1:48:07 Kathy BRADLEY           Ottawa         1/3   W35 - 39      606    2     31   19:13  4:49    1      8   52:07  34.5     2     32   36:47  5:07         
   21     1:48:22 Jose ROMERO             Kingston       6/17  M45 - 49      653    4     14   16:56  4:14    10    38   59:21  30.3     3     15   32:06  4:28         
   22     1:49:22 Bryan LAMBERT           Kingston       3/6   M35 - 39      682    1     10   16:16  4:04    4     47 1:02:59  28.6     2      8   30:08  4:12         
   23     1:49:57 Marvin CORREA           Kingston       3/3   Elite Men     665    3     29   19:04  4:46    3     16   54:13  33.2     3     31   36:41  5:06         
   24     1:50:06 Shelley WILLEMSE        Bath           2/3   W35 - 39      668    1     22   18:15  4:34    2     22   56:12  32.0     1     26   35:40  4:58         
   25     1:50:44 Andrew GOSS             Kingston       4/6   M35 - 39      604    5     35   19:34  4:54    2     27   57:08  31.5     4     20   34:03  4:44         
   26     1:51:19 Alexandre BOUDREAULT    Gatineau       4/7   M30 - 34      643    6     28   19:00  4:45    4     24   56:48  31.7     3     22   35:32  4:57         
   27     1:51:23 James STANLEY           Toronto        7/17  M45 - 49      648    7     19   17:50  4:28    9     37   59:12  30.4     7     21   34:21  4:47         
   28     1:52:08 Brian CAMPBELL          St.Catharine   1/1   M60 - 64      619    1     37   19:45  4:57    1     21   56:12  32.0     1     29   36:13  5:02         
   29     1:53:06 Vincent Andy FONG       Kanata         3/4   M40 - 44      634    3     33   19:20  4:50    3     30   57:59  31.0     3     27   35:49  4:59         
   30     1:53:43 Paul GAVEL              Napanee        1/3   M55 - 59      605    1     32   19:16  4:49    1     17   55:09  32.6     2     43   39:18  5:28         
   31     1:54:10 Larry MILOSEVIC         Etobicoke      8/17  M45 - 49      650    9     44   20:10  5:03    5     23   56:48  31.7     8     33   37:14  5:11         
   32     1:54:16 Joan SCIBETTA           Brewerton      1/5   W40 - 44      615    1     27   18:52  4:43    2     40   59:52  30.1     1     23   35:33  4:57         
   33     1:54:43 Lisa MYLES              Kingston       1/5   W45 - 49      688    1     39   19:47  4:57    1     34   58:59  30.5     1     28   35:58  5:00         
   34     1:55:24 Tim KINGSTON            Inverary       2/5   M50 - 54      607    2     40   19:50  4:58    2     26   57:08  31.5     2     41   38:27  5:21         
   35     1:55:30 Darlene HOWE            Oshawa         2/5   W40 - 44      685    2     36   19:38  4:55    1     31   58:14  30.9     2     36   37:39  5:14         
   36     1:55:36 Eddie CHOI              Newmarket      5/7   M30 - 34      672    5     26   18:44  4:41    6     33   58:51  30.6     5     39   38:02  5:17         
   37     1:56:22 Terry HODGE             Brockville     9/17  M45 - 49      667    11    48   21:02  5:16    7     29   57:39  31.2     9     37   37:42  5:15         
   38     1:57:05 Edwin AGUILAR           Kingston       6/7   M30 - 34      649    7     43   19:53  4:59    5     25   57:02  31.6     6     44   40:11  5:35         
   39     1:57:36 Edd FERGUSON            Bath           2/3   M55 - 59      655    2     47   20:30  5:08    2     36   59:08  30.4     1     38   37:59  5:17         
   40     1:58:56 Kevin COLLINS           Elginburg      5/6   M35 - 39      676    4     25   18:27  4:37    5     48 1:03:12  28.5     5     34   37:19  5:11         
   41     2:00:19 Melanie BURGESS         Kingston       2/4   W25 - 29      664    2     30   19:07  4:47    2     51 1:05:00  27.7     2     30   36:13  5:02         
   42     2:00:36 Andy PAQUIN             Inverary       7/7   M30 - 34      629    4     23   18:16  4:34    7     45 1:01:59  29.0     7     46   40:23  5:37         
   43     2:00:51 Tim MCMICHAEL           Kingston      10/17  M45 - 49      608    8     34   19:22  4:51    8     35   59:01  30.5     12    54   42:29  5:54         
   44     2:02:16 Giovanni SALAS          Oshawa        11/17  M45 - 49      686    12    49   21:09  5:18    11    41   59:55  30.0     11    50   41:12  5:44         
   45     2:02:54 Eddy LLOYD              Kingston       3/5   M50 - 54      624    4     55   22:06  5:32    3     32   58:21  30.8     4     53   42:27  5:54         
   46     2:03:54 Melanie PULLING         Kingston       2/2   Junior Women  637    2     53   21:53  5:29    2     44 1:01:27  29.3     2     48   40:35  5:39         
   47     2:04:20 Bruce CAUGHILL          Niagara on t   4/4   M40 - 44      622    4     50   21:25  5:22    4     39   59:50  30.1     4     59   43:06  6:00         
   48     2:05:54 Donna RICHARDSON        Kingston       2/5   W45 - 49      645    2     52   21:51  5:28    3     52 1:05:04  27.7     2     42   39:00  5:25         
   49     2:06:27 Brian LEWIS             Kingston      12/17  M45 - 49      626    14    57   22:17  5:35    12    43 1:01:14  29.4     13    58   42:57  5:58         
   50 CLY 2:06:46 Bob SEITZ               Kingston       6/6   M35 - 39      666    6     41   19:51  4:58    6     50 1:04:15  28.0     6     56   42:41  5:56         
   51     2:06:50 Bob KLASSEN             Kingston       4/5   M50 - 54      638    3     46   20:16  5:04    4     49 1:03:13  28.5     5     60   43:22  6:02         
   52     2:08:44 Danny ROSE              Belleville    13/17  M45 - 49      630    10    45   20:12  5:03    15    60 1:08:03  26.5     10    47   40:31  5:38         
   53     2:10:10 Frank GILLESPIE         Perthroad vi   5/5   M50 - 54      658    5     63   22:57  5:45    5     55 1:06:56  26.9     3     45   40:18  5:36         
   54     2:10:26 Michelle METHOT         Kingston       3/5   W40 - 44      661    4     61   22:39  5:40    4     57 1:07:02  26.9     3     49   40:46  5:40         
   55     2:11:00 Laura CRUSE             Kingston       4/5   W40 - 44      640    3     59   22:35  5:39    3     53 1:05:50  27.3     4     55   42:37  5:56         
   56     2:11:30 Catherine LEBEL         Edmonton       3/4   W25 - 29      662    3     42   19:52  4:58    4     72 1:14:03  24.3     3     35   37:35  5:14         
   57     2:12:33 Paul SMEY               Cape Coral     1/1   M65 - 69      654    1     54   21:59  5:30    1     63 1:09:17  26.0     1     51   41:18  5:45         
   58     2:12:54 Bob YUEN                Ottawa         1/2   M25 - 29      621    1     64   23:15  5:49    1     56 1:06:56  26.9     1     57   42:44  5:57         
   59     2:13:31 Louise HUNTER           Kingston       3/5   W45 - 49      642    3     58   22:25  5:37    4     62 1:09:04  26.1     3     52   42:03  5:51         
   60     2:14:24 Amelia PURVIS           Kingston       1/2   W20 - 24      644    1     38   19:46  4:57    1     73 1:16:15  23.6     1     40   38:24  5:20         
   61     2:15:43 Gerard YUN              Waterloo      14/17  M45 - 49      678    13    56   22:15  5:34    14    59 1:07:59  26.5     14    63   45:31  6:20         
   62     2:17:29 Ken MCCAULEY            Kingston       3/3   M55 - 59      635    3     51   21:29  5:23    3     66 1:10:17  25.6     3     64   45:44  6:21         
   63     2:17:42 Daryl WATTERS           Kingston      15/17  M45 - 49      641    15    60   22:37  5:40    13    58 1:07:54  26.5     16    66   47:12  6:34         
   64     2:17:43 Bruce MCLEOD            Ottawa        16/17  M45 - 49      600    16    62   22:39  5:40    16    61 1:08:07  26.4     15    65   46:58  6:32         
   65     2:19:55 Matthew HALL            Kingston       1/1   Junior Men    614    1     65   23:33  5:54    1     54 1:06:18  27.1     1     69   50:05  6:58         
   66     2:20:11 Glenn BROWN             Kingston       1/1   M70 & Over    677    1     67   24:25  6:07    1     70 1:11:30  25.2     1     61   44:17  6:09         
   67     2:21:02 Jennifer BARNETT        Mississauga    3/3   W35 - 39      601    3     71   25:45  6:27    3     64 1:09:50  25.8     3     62   45:28  6:19         
   68     2:22:39 Shirley LINDENBERG      Belleville     4/5   W45 - 49      636    5     73   26:21  6:36    2     46 1:02:54  28.6     5     72   53:25  7:26         
   69     2:24:22 Ruth BERNARDI           Kingston       5/5   W45 - 49      681    4     68   24:39  6:10    5     71 1:12:16  24.9     4     67   47:28  6:36         
   70     2:26:29 Heather STORMS          Kingston       5/5   W40 - 44      652    5     66   24:04  6:01    5     68 1:11:01  25.3     5     70   51:25  7:09         
   71     2:32:04 Darcie KELLY            Toronto        4/4   W25 - 29      680    4     69   25:09  6:18    3     69 1:11:25  25.2     4     73   55:31  7:43         
   72     2:32:37 Alison PARKER           Kingston       2/2   W20 - 24      663    2     70   25:16  6:19    2     75 1:17:30  23.2     2     68   49:52  6:56         
   73     2:34:35 Deborah HERR            Kingston       1/1   W55 - 59      651    1     72   25:54  6:29    1     74 1:17:06  23.3     1     71   51:35  7:10         
   74     2:36:24 Denise KERR             Kingston       1/1   W50 - 54      646    1     75   29:14  7:19    1     65 1:10:08  25.7     1     74   57:02  7:56         
   75 CLY 2:39:28 Luc MONGRAIN            Kingston      17/17  M45 - 49      670    17    76   29:29  7:23    17    67 1:10:20  25.6     17    75   59:39  8:18         
   76     3:09:38 Michael VALLERANO       Gananoque      2/2   M25 - 29      620    2     74   27:04  6:46    2     76 1:29:15  20.2     2     76 1:13:20 10:11